createdAt,value
2022-12-17T00:00:01.748Z,-6.18
2022-12-17T00:01:03.916Z,-6.32
2022-12-17T00:02:05.526Z,-6.28
2022-12-17T00:03:10.087Z,-6.10
2022-12-17T00:04:11.782Z,-6.30
2022-12-17T00:05:13.415Z,-6.37
2022-12-17T00:06:14.924Z,-6.32
2022-12-17T00:07:16.532Z,-6.35
2022-12-17T00:08:19.369Z,-6.26
2022-12-17T00:09:20.926Z,-6.18
2022-12-17T00:10:22.407Z,-6.46
2022-12-17T00:11:24.017Z,-6.60
2022-12-17T00:12:25.587Z,-6.66
2022-12-17T00:13:27.111Z,-6.60
2022-12-17T00:14:28.633Z,-6.47
2022-12-17T00:15:30.169Z,-6.44
2022-12-17T00:16:31.727Z,-6.60
2022-12-17T00:17:33.368Z,-6.31
2022-12-17T00:18:34.920Z,-6.14
2022-12-17T00:19:36.430Z,-6.06
2022-12-17T00:20:37.925Z,-6.07
2022-12-17T00:21:39.475Z,-6.19
2022-12-17T00:22:41.013Z,-6.34
2022-12-17T00:23:44.162Z,-6.51
2022-12-17T00:24:45.680Z,-6.71
2022-12-17T00:25:50.567Z,-6.71
2022-12-17T00:26:52.106Z,-6.86
2022-12-17T00:27:53.625Z,-6.97
2022-12-17T00:28:55.194Z,-6.94
2022-12-17T00:29:57.532Z,-7.01
2022-12-17T00:30:59.095Z,-7.03
2022-12-17T00:32:00.900Z,-7.11
2022-12-17T00:33:02.405Z,-7.11
2022-12-17T00:34:03.921Z,-6.94
2022-12-17T00:35:06.368Z,-6.98
2022-12-17T00:36:08.380Z,-7.13
2022-12-17T00:37:09.882Z,-7.17
2022-12-17T00:38:15.154Z,-7.17
2022-12-17T00:39:17.969Z,-7.08
2022-12-17T00:40:19.578Z,-7.15
2022-12-17T00:41:21.193Z,-7.22
2022-12-17T00:42:22.823Z,-7.28
2022-12-17T00:43:24.342Z,-7.32
2022-12-17T00:44:25.871Z,-7.31
2022-12-17T00:45:27.399Z,-7.35
2022-12-17T00:46:28.979Z,-7.30
2022-12-17T00:47:30.530Z,-7.28
2022-12-17T00:48:32.050Z,-7.20
2022-12-17T00:49:33.574Z,-7.23
2022-12-17T00:50:35.134Z,-7.19
2022-12-17T00:51:36.638Z,-7.07
2022-12-17T00:52:38.157Z,-7.11
2022-12-17T00:53:39.808Z,-7.09
2022-12-17T00:54:42.720Z,-7.03
2022-12-17T00:55:44.301Z,-6.95
2022-12-17T00:56:45.893Z,-7.03
2022-12-17T00:57:53.077Z,-6.96
2022-12-17T00:58:54.635Z,-6.94
2022-12-17T00:59:56.121Z,-6.91
2022-12-17T01:00:58.600Z,-6.86
2022-12-17T01:02:00.273Z,-6.88
2022-12-17T01:03:06.951Z,-6.86
2022-12-17T01:04:08.512Z,-6.80
2022-12-17T01:05:11.019Z,-6.78
2022-12-17T01:06:13.610Z,-7.05
2022-12-17T01:07:15.185Z,-7.13
2022-12-17T01:08:16.741Z,-7.33
2022-12-17T01:09:18.502Z,-7.38
2022-12-17T01:10:21.366Z,-7.54
2022-12-17T01:11:22.904Z,-7.57
2022-12-17T01:12:24.397Z,-7.49
2022-12-17T01:13:25.975Z,-7.61
2022-12-17T01:14:27.743Z,-7.60
2022-12-17T01:15:29.298Z,-7.53
2022-12-17T01:16:30.857Z,-7.26
2022-12-17T01:17:32.431Z,-7.01
2022-12-17T01:18:33.962Z,-6.89
2022-12-17T01:19:35.464Z,-6.88
2022-12-17T01:20:37.046Z,-6.92
2022-12-17T01:21:39.154Z,-7.03
2022-12-17T01:22:56.457Z,-6.99
2022-12-17T01:23:58.124Z,-7.18
2022-12-17T01:24:59.645Z,-6.87
2022-12-17T01:26:02.581Z,-6.79
2022-12-17T01:27:04.224Z,-6.76
2022-12-17T01:28:05.857Z,-6.70
2022-12-17T01:29:07.386Z,-6.74
2022-12-17T01:30:09.401Z,-6.79
2022-12-17T01:31:12.037Z,-6.81
2022-12-17T01:32:13.618Z,-6.93
2022-12-17T01:33:15.186Z,-6.84
2022-12-17T01:34:16.786Z,-6.81
2022-12-17T01:35:18.469Z,-6.91
2022-12-17T01:36:20.120Z,-6.84
2022-12-17T01:37:21.649Z,-6.80
2022-12-17T01:38:23.148Z,-6.70
2022-12-17T01:39:24.701Z,-6.80
2022-12-17T01:40:26.227Z,-6.89
2022-12-17T01:41:29.768Z,-6.73
2022-12-17T01:42:37.824Z,-6.77
2022-12-17T01:43:39.634Z,-6.72
2022-12-17T01:44:47.982Z,-6.69
2022-12-17T01:45:49.765Z,-6.72
2022-12-17T01:46:51.763Z,-6.65
2022-12-17T01:47:58.924Z,-6.57
2022-12-17T01:49:00.648Z,-6.58
2022-12-17T01:50:02.186Z,-6.53
2022-12-17T01:51:04.633Z,-6.55
2022-12-17T01:52:06.795Z,-6.62
2022-12-17T01:53:09.459Z,-6.63
2022-12-17T01:54:11.303Z,-6.70
2022-12-17T01:55:12.809Z,-6.68
2022-12-17T01:56:14.712Z,-6.61
2022-12-17T01:57:17.615Z,-6.52
2022-12-17T01:58:19.421Z,-6.56
2022-12-17T01:59:29.399Z,-6.53
2022-12-17T02:00:31.135Z,-6.68
2022-12-17T02:01:32.771Z,-6.50
2022-12-17T02:02:34.486Z,-6.52
2022-12-17T02:03:36.505Z,-6.60
2022-12-17T02:04:39.105Z,-6.62
2022-12-17T02:05:48.283Z,-6.71
2022-12-17T02:06:59.394Z,-6.90
2022-12-17T02:08:10.625Z,-7.09
2022-12-17T02:09:20.756Z,-7.22
2022-12-17T02:10:25.536Z,-7.23
2022-12-17T02:11:39.547Z,-7.37
2022-12-17T02:12:47.208Z,-7.43
2022-12-17T02:13:54.962Z,-7.62
2022-12-17T02:15:05.514Z,-7.63
2022-12-17T02:16:12.221Z,-7.64
2022-12-17T02:17:20.488Z,-7.65
2022-12-17T02:18:27.755Z,-7.67
2022-12-17T02:19:42.161Z,-7.68
2022-12-17T02:20:48.003Z,-7.66
2022-12-17T02:21:57.350Z,-7.73
2022-12-17T02:23:09.006Z,-7.73
2022-12-17T02:24:14.915Z,-7.77
2022-12-17T02:25:23.053Z,-7.77
2022-12-17T02:26:36.562Z,-7.66
2022-12-17T02:27:50.461Z,-7.56
2022-12-17T02:28:53.071Z,-7.54
2022-12-17T02:29:57.235Z,-7.48
2022-12-17T02:30:58.874Z,-7.44
2022-12-17T02:32:02.550Z,-7.38
2022-12-17T02:33:04.878Z,-7.37
2022-12-17T02:34:06.416Z,-7.38
2022-12-17T02:35:14.611Z,-7.37
2022-12-17T02:36:16.158Z,-7.26
2022-12-17T02:37:17.666Z,-7.35
2022-12-17T02:38:21.708Z,-7.36
2022-12-17T02:39:23.402Z,-7.46
2022-12-17T02:40:25.387Z,-7.42
2022-12-17T02:41:29.582Z,-7.45
2022-12-17T02:42:33.081Z,-7.45
2022-12-17T02:43:35.550Z,-7.47
2022-12-17T02:44:39.289Z,-7.43
2022-12-17T02:45:41.063Z,-7.39
2022-12-17T02:46:43.551Z,-7.44
2022-12-17T02:47:45.445Z,-7.43
2022-12-17T02:48:47.202Z,-7.44
2022-12-17T02:49:48.865Z,-7.44
2022-12-17T02:50:50.670Z,-7.47
2022-12-17T02:51:54.447Z,-7.50
2022-12-17T02:52:59.566Z,-7.46
2022-12-17T02:54:03.804Z,-7.46
2022-12-17T02:55:06.853Z,-7.41
2022-12-17T02:56:08.606Z,-7.45
2022-12-17T02:57:10.121Z,-7.43
2022-12-17T02:58:12.990Z,-7.45
2022-12-17T02:59:14.762Z,-7.45
2022-12-17T03:00:16.603Z,-7.52
2022-12-17T03:01:18.258Z,-7.56
2022-12-17T03:02:19.975Z,-7.60
2022-12-17T03:03:21.786Z,-7.72
2022-12-17T03:04:23.359Z,-7.79
2022-12-17T03:06:46.323Z,-8.04
2022-12-17T03:07:47.827Z,-8.04
2022-12-17T03:08:49.488Z,-8.07
2022-12-17T03:09:51.041Z,-8.03
2022-12-17T03:10:52.624Z,-8.07
2022-12-17T03:11:54.123Z,-8.07
2022-12-17T03:12:55.598Z,-7.96
2022-12-17T03:13:59.687Z,-8.05
2022-12-17T03:16:57.913Z,-8.02
2022-12-17T03:17:59.450Z,-8.01
2022-12-17T03:19:01.541Z,-8.02
2022-12-17T03:20:03.888Z,-7.79
2022-12-17T03:21:05.560Z,-7.82
2022-12-17T03:22:07.090Z,-7.76
2022-12-17T03:23:10.963Z,-7.88
2022-12-17T03:24:12.480Z,-7.82
2022-12-17T03:25:14.910Z,-7.79
2022-12-17T03:26:16.512Z,-7.84
2022-12-17T03:27:18.074Z,-7.80
2022-12-17T03:28:19.623Z,-7.97
2022-12-17T03:29:22.485Z,-7.78
2022-12-17T03:30:24.153Z,-7.75
2022-12-17T03:31:25.861Z,-7.75
2022-12-17T03:32:27.405Z,-7.64
2022-12-17T03:33:28.911Z,-7.87
2022-12-17T03:34:30.413Z,-7.79
2022-12-17T03:35:31.983Z,-7.73
2022-12-17T03:36:33.510Z,-7.66
2022-12-17T03:37:35.048Z,-7.65
2022-12-17T03:38:39.741Z,-7.66
2022-12-17T03:39:41.267Z,-7.76
2022-12-17T03:40:42.793Z,-7.71
2022-12-17T03:41:45.075Z,-7.67
2022-12-17T03:42:46.584Z,-7.66
2022-12-17T03:43:48.099Z,-7.63
2022-12-17T03:44:50.947Z,-7.57
2022-12-17T03:45:53.343Z,-7.64
2022-12-17T03:46:54.946Z,-7.48
2022-12-17T03:48:04.925Z,-7.50
2022-12-17T03:49:06.755Z,-7.51
2022-12-17T03:50:08.641Z,-7.49
2022-12-17T03:51:10.132Z,-7.48
2022-12-17T03:52:11.632Z,-7.46
2022-12-17T03:53:13.238Z,-7.44
2022-12-17T03:54:14.727Z,-7.48
2022-12-17T03:55:16.303Z,-7.63
2022-12-17T03:56:17.833Z,-7.54
2022-12-17T03:57:19.386Z,-7.67
2022-12-17T03:58:20.905Z,-7.65
2022-12-17T03:59:22.433Z,-7.62
2022-12-17T04:00:25.273Z,-7.60
2022-12-17T04:01:26.848Z,-7.59
2022-12-17T04:02:28.565Z,-7.53
2022-12-17T04:03:30.255Z,-7.62
2022-12-17T04:04:31.860Z,-7.58
2022-12-17T04:05:33.436Z,-7.53
2022-12-17T04:06:34.970Z,-7.46
2022-12-17T04:07:36.526Z,-7.53
2022-12-17T04:08:38.051Z,-7.46
2022-12-17T04:09:39.557Z,-7.46
2022-12-17T04:10:41.358Z,-7.52
2022-12-17T04:11:42.916Z,-7.47
2022-12-17T04:12:44.443Z,-7.47
2022-12-17T04:13:46.285Z,-7.68
2022-12-17T04:14:48.052Z,-7.66
2022-12-17T04:15:50.967Z,-7.82
2022-12-17T04:16:52.492Z,-7.84
2022-12-17T04:17:54.152Z,-7.88
2022-12-17T04:18:55.726Z,-7.94
2022-12-17T04:19:57.272Z,-7.84
2022-12-17T04:21:14.143Z,-7.76
2022-12-17T04:22:15.715Z,-7.83
2022-12-17T04:23:17.234Z,-7.59
2022-12-17T04:24:18.770Z,-7.66
2022-12-17T04:25:20.365Z,-7.50
2022-12-17T04:26:21.943Z,-7.46
2022-12-17T04:27:23.496Z,-7.50
2022-12-17T04:28:25.021Z,-7.44
2022-12-17T04:29:26.562Z,-7.60
2022-12-17T04:30:28.069Z,-7.71
2022-12-17T04:31:36.065Z,-8.07
2022-12-17T04:32:37.640Z,-8.63
2022-12-17T04:33:39.473Z,-8.78
2022-12-17T04:34:41.173Z,-8.90
2022-12-17T04:35:44.351Z,-9.02
2022-12-17T04:36:45.847Z,-9.16
2022-12-17T04:37:47.430Z,-9.06
2022-12-17T04:38:48.959Z,-8.88
2022-12-17T04:39:50.546Z,-8.65
2022-12-17T04:40:52.072Z,-8.31
2022-12-17T04:42:18.335Z,-8.14
2022-12-17T04:43:19.848Z,-8.06
2022-12-17T04:44:21.341Z,-7.93
2022-12-17T04:45:22.846Z,-7.97
2022-12-17T04:46:24.423Z,-7.82
2022-12-17T04:47:27.381Z,-7.86
2022-12-17T04:48:28.903Z,-7.82
2022-12-17T04:49:30.445Z,-7.73
2022-12-17T04:50:31.958Z,-7.78
2022-12-17T04:51:33.481Z,-7.79
2022-12-17T04:52:34.998Z,-7.68
2022-12-17T04:53:36.840Z,-7.54
2022-12-17T04:54:38.599Z,-7.52
2022-12-17T04:55:40.099Z,-7.67
2022-12-17T04:56:41.652Z,-7.59
2022-12-17T04:57:43.174Z,-7.54
2022-12-17T04:58:44.673Z,-7.96
2022-12-17T04:59:46.143Z,-8.40
2022-12-17T05:00:47.680Z,-8.59
2022-12-17T05:01:49.328Z,-8.72
2022-12-17T05:02:52.396Z,-8.49
2022-12-17T05:03:54.065Z,-8.27
2022-12-17T05:04:55.644Z,-8.21
2022-12-17T05:05:57.458Z,-8.37
2022-12-17T05:06:59.036Z,-8.29
2022-12-17T05:08:00.617Z,-8.34
2022-12-17T05:09:02.375Z,-8.47
2022-12-17T05:10:04.389Z,-8.64
2022-12-17T05:11:06.004Z,-8.75
2022-12-17T05:12:07.530Z,-8.72
2022-12-17T05:13:09.910Z,-8.74
2022-12-17T05:14:11.422Z,-8.78
2022-12-17T05:15:12.961Z,-8.89
2022-12-17T05:16:14.597Z,-9.01
2022-12-17T05:17:16.237Z,-9.08
2022-12-17T05:18:19.122Z,-9.18
2022-12-17T05:19:20.653Z,-9.21
2022-12-17T05:20:22.171Z,-9.27
2022-12-17T05:21:23.668Z,-9.33
2022-12-17T05:22:25.195Z,-9.32
2022-12-17T05:23:26.670Z,-9.40
2022-12-17T05:24:28.184Z,-9.38
2022-12-17T05:25:29.749Z,-9.42
2022-12-17T05:26:31.296Z,-9.36
2022-12-17T05:27:32.813Z,-9.39
2022-12-17T05:28:34.357Z,-9.53
2022-12-17T05:29:35.839Z,-9.46
2022-12-17T05:30:37.344Z,-9.52
2022-12-17T05:31:38.932Z,-9.48
2022-12-17T05:32:40.503Z,-9.53
2022-12-17T05:33:43.377Z,-9.62
2022-12-17T05:34:44.878Z,-9.65
2022-12-17T05:35:46.672Z,-9.66
2022-12-17T05:36:48.196Z,-9.76
2022-12-17T05:37:49.705Z,-9.71
2022-12-17T05:38:54.043Z,-9.77
2022-12-17T05:39:55.540Z,-9.86
2022-12-17T05:41:12.530Z,-9.95
2022-12-17T05:42:14.044Z,-10.05
2022-12-17T05:43:15.529Z,-10.10
2022-12-17T05:44:17.034Z,-10.10
2022-12-17T05:45:18.543Z,-10.03
2022-12-17T05:46:20.130Z,-10.13
2022-12-17T05:47:21.644Z,-10.20
2022-12-17T05:48:23.175Z,-10.21
2022-12-17T05:49:26.040Z,-10.24
2022-12-17T05:50:29.213Z,-10.25
2022-12-17T05:51:33.514Z,-10.27
2022-12-17T05:52:38.626Z,-10.23
2022-12-17T05:53:40.142Z,-10.34
2022-12-17T05:54:41.728Z,-10.23
2022-12-17T05:55:43.267Z,-10.25
2022-12-17T05:56:44.865Z,-10.15
2022-12-17T05:57:49.413Z,-10.04
2022-12-17T05:58:53.242Z,-9.86
2022-12-17T05:59:54.741Z,-9.65
2022-12-17T06:00:56.654Z,-9.58
2022-12-17T06:01:58.220Z,-9.57
2022-12-17T06:03:00.771Z,-9.54
2022-12-17T06:04:02.500Z,-9.53
2022-12-17T06:05:06.741Z,-9.49
2022-12-17T06:06:08.229Z,-9.50
2022-12-17T06:07:09.759Z,-9.43
2022-12-17T06:08:11.297Z,-9.45
2022-12-17T06:09:13.292Z,-9.47
2022-12-17T06:10:14.818Z,-9.43
2022-12-17T06:11:16.328Z,-9.36
2022-12-17T06:12:17.861Z,-9.38
2022-12-17T06:13:19.360Z,-9.33
2022-12-17T06:14:20.907Z,-9.32
2022-12-17T06:15:22.422Z,-9.30
2022-12-17T06:16:24.003Z,-9.34
2022-12-17T06:17:25.592Z,-9.34
2022-12-17T06:18:27.108Z,-9.35
2022-12-17T06:19:28.665Z,-9.27
2022-12-17T06:20:43.880Z,-9.18
2022-12-17T06:21:45.380Z,-9.07
2022-12-17T06:22:46.894Z,-9.14
2022-12-17T06:23:48.399Z,-9.11
2022-12-17T06:24:49.960Z,-9.01
2022-12-17T06:25:52.661Z,-8.99
2022-12-17T06:26:54.191Z,-8.96
2022-12-17T06:27:59.473Z,-8.85
2022-12-17T06:29:00.998Z,-8.80
2022-12-17T06:30:02.560Z,-8.73
2022-12-17T06:31:04.123Z,-8.68
2022-12-17T06:32:05.684Z,-8.60
2022-12-17T06:33:09.264Z,-8.55
2022-12-17T06:34:10.805Z,-8.58
2022-12-17T06:35:12.311Z,-8.57
2022-12-17T06:36:21.667Z,-8.66
2022-12-17T06:37:24.208Z,-8.95
2022-12-17T06:38:25.753Z,-9.30
2022-12-17T06:39:27.295Z,-9.43
2022-12-17T06:40:28.793Z,-9.40
2022-12-17T06:41:30.304Z,-9.60
2022-12-17T06:42:31.896Z,-9.57
2022-12-17T06:43:33.786Z,-9.53
2022-12-17T06:44:35.572Z,-9.51
2022-12-17T06:45:37.080Z,-9.62
2022-12-17T06:46:38.627Z,-9.66
2022-12-17T06:47:40.134Z,-9.66
2022-12-17T06:48:50.665Z,-9.60
2022-12-17T06:49:56.598Z,-9.56
2022-12-17T06:51:01.080Z,-9.42
2022-12-17T06:52:04.098Z,-9.26
2022-12-17T06:53:07.224Z,-9.45
2022-12-17T06:54:08.768Z,-9.34
2022-12-17T06:55:10.676Z,-9.20
2022-12-17T06:56:12.210Z,-9.13
2022-12-17T06:57:13.745Z,-8.95
2022-12-17T06:58:15.246Z,-8.87
2022-12-17T06:59:16.762Z,-8.76
2022-12-17T07:00:18.329Z,-8.71
2022-12-17T07:01:20.048Z,-8.72
2022-12-17T07:02:21.751Z,-8.62
2022-12-17T07:03:23.480Z,-8.63
2022-12-17T07:04:25.057Z,-8.59
2022-12-17T07:05:45.016Z,-8.53
2022-12-17T07:06:46.549Z,-8.50
2022-12-17T07:07:49.403Z,-8.52
2022-12-17T07:08:50.906Z,-8.53
2022-12-17T07:09:52.422Z,-8.54
2022-12-17T07:10:53.958Z,-8.54
2022-12-17T07:11:55.661Z,-8.42
2022-12-17T07:13:04.236Z,-8.41
2022-12-17T07:14:05.774Z,-8.52
2022-12-17T07:15:08.218Z,-8.46
2022-12-17T07:16:09.739Z,-8.51
2022-12-17T07:17:11.889Z,-8.49
2022-12-17T07:18:13.496Z,-8.48
2022-12-17T07:19:15.069Z,-8.44
2022-12-17T07:20:16.661Z,-8.53
2022-12-17T07:21:18.155Z,-8.52
2022-12-17T07:22:19.680Z,-8.46
2022-12-17T07:23:22.521Z,-8.38
2022-12-17T07:24:24.059Z,-8.33
2022-12-17T07:25:25.567Z,-8.21
2022-12-17T07:26:27.141Z,-8.18
2022-12-17T07:27:28.650Z,-8.11
2022-12-17T07:28:30.127Z,-8.06
2022-12-17T07:29:31.645Z,-8.10
2022-12-17T07:30:33.158Z,-8.12
2022-12-17T07:31:34.718Z,-8.25
2022-12-17T07:32:36.234Z,-8.14
2022-12-17T07:33:37.979Z,-8.10
2022-12-17T07:34:39.657Z,-8.13
2022-12-17T07:35:41.173Z,-8.18
2022-12-17T07:36:42.664Z,-8.19
2022-12-17T07:37:44.158Z,-8.18
2022-12-17T07:38:46.993Z,-8.16
2022-12-17T07:39:48.524Z,-8.10
2022-12-17T07:40:50.160Z,-8.07
2022-12-17T07:41:51.666Z,-8.10
2022-12-17T07:42:53.144Z,-8.06
2022-12-17T07:43:54.696Z,-8.05
2022-12-17T07:44:56.198Z,-8.17
2022-12-17T07:45:57.766Z,-8.21
2022-12-17T07:46:59.259Z,-8.55
2022-12-17T07:48:00.765Z,-9.15
2022-12-17T07:49:02.459Z,-9.44
2022-12-17T07:50:05.158Z,-9.61
2022-12-17T07:51:06.675Z,-9.67
2022-12-17T07:52:08.188Z,-9.87
2022-12-17T07:53:09.714Z,-9.99
2022-12-17T07:54:13.038Z,-10.00
2022-12-17T07:55:18.195Z,-9.97
2022-12-17T07:56:20.226Z,-9.86
2022-12-17T07:57:21.729Z,-9.84
2022-12-17T07:58:24.351Z,-9.78
2022-12-17T07:59:25.874Z,-9.52
2022-12-17T08:00:27.410Z,-9.28
2022-12-17T08:01:29.024Z,-9.22
2022-12-17T08:02:31.441Z,-9.19
2022-12-17T08:03:33.267Z,-9.19
2022-12-17T08:04:34.942Z,-9.09
2022-12-17T08:05:36.460Z,-9.03
2022-12-17T08:06:51.623Z,-8.91
2022-12-17T08:07:55.451Z,-9.01
2022-12-17T08:08:56.969Z,-9.05
2022-12-17T08:09:59.816Z,-8.97
2022-12-17T08:11:01.323Z,-8.89
2022-12-17T08:12:02.894Z,-8.90
2022-12-17T08:13:08.379Z,-8.65
2022-12-17T08:14:14.014Z,-8.41
2022-12-17T08:15:15.972Z,-8.47
2022-12-17T08:16:17.485Z,-8.43
2022-12-17T08:17:19.046Z,-8.46
2022-12-17T08:18:26.109Z,-8.39
2022-12-17T08:19:28.351Z,-8.40
2022-12-17T08:20:29.876Z,-8.33
2022-12-17T08:21:31.355Z,-8.32
2022-12-17T08:22:32.878Z,-8.17
2022-12-17T08:23:34.760Z,-8.06
2022-12-17T08:24:36.562Z,-7.86
2022-12-17T08:25:39.880Z,-7.88
2022-12-17T08:26:47.320Z,-7.89
2022-12-17T08:27:55.648Z,-7.86
2022-12-17T08:28:58.860Z,-7.88
2022-12-17T08:30:00.356Z,-7.86
2022-12-17T08:31:01.991Z,-7.96
2022-12-17T08:32:03.538Z,-8.01
2022-12-17T08:33:05.839Z,-7.95
2022-12-17T08:34:08.144Z,-7.93
2022-12-17T08:35:09.984Z,-7.73
2022-12-17T08:36:11.861Z,-7.62
2022-12-17T08:37:13.428Z,-7.53
2022-12-17T08:38:14.957Z,-7.41
2022-12-17T08:39:16.488Z,-7.42
2022-12-17T08:40:18.036Z,-7.49
2022-12-17T08:41:20.969Z,-7.48
2022-12-17T08:42:22.537Z,-7.41
2022-12-17T08:43:24.084Z,-7.42
2022-12-17T08:44:25.563Z,-7.39
2022-12-17T08:45:27.042Z,-7.37
2022-12-17T08:46:28.637Z,-7.32
2022-12-17T08:47:30.247Z,-7.18
2022-12-17T08:48:31.810Z,-7.05
2022-12-17T08:49:33.327Z,-6.86
2022-12-17T08:50:34.876Z,-6.75
2022-12-17T08:51:36.375Z,-6.52
2022-12-17T08:52:37.943Z,-6.37
2022-12-17T08:53:39.802Z,-6.14
2022-12-17T08:54:41.594Z,-6.01
2022-12-17T08:55:43.139Z,-5.81
2022-12-17T08:56:46.082Z,-5.76
2022-12-17T08:57:52.971Z,-5.83
2022-12-17T08:58:59.144Z,-5.91
2022-12-17T09:00:00.994Z,-5.87
2022-12-17T09:01:02.585Z,-5.61
2022-12-17T09:02:04.270Z,-5.59
2022-12-17T09:03:06.019Z,-5.53
2022-12-17T09:04:07.567Z,-5.76
2022-12-17T09:05:09.192Z,-5.57
2022-12-17T09:06:11.276Z,-6.50
2022-12-17T09:07:12.810Z,-6.17
2022-12-17T09:08:14.352Z,-6.48
2022-12-17T09:09:16.177Z,-6.43
2022-12-17T09:10:17.728Z,-6.03
2022-12-17T09:11:19.298Z,-5.71
2022-12-17T09:12:22.186Z,-5.57
2022-12-17T09:13:23.707Z,-5.47
2022-12-17T09:14:28.556Z,-5.41
2022-12-17T09:15:30.041Z,-5.20
2022-12-17T09:16:31.632Z,-5.07
2022-12-17T09:17:33.190Z,-5.27
2022-12-17T09:18:34.668Z,-5.04
2022-12-17T09:19:36.181Z,-5.14
2022-12-17T09:20:37.787Z,-5.03
2022-12-17T09:21:39.361Z,-5.19
2022-12-17T09:22:40.915Z,-5.11
2022-12-17T09:23:42.410Z,-4.94
2022-12-17T09:24:43.920Z,-4.84
2022-12-17T09:25:57.974Z,-4.71
2022-12-17T09:26:59.896Z,-4.60
2022-12-17T09:28:03.585Z,-4.55
2022-12-17T09:29:05.104Z,-4.63
2022-12-17T09:30:07.508Z,-4.98
2022-12-17T09:31:09.138Z,-5.25
2022-12-17T09:32:10.762Z,-5.40
2022-12-17T09:33:15.059Z,-5.34
2022-12-17T09:34:16.792Z,-5.40
2022-12-17T09:35:18.330Z,-5.33
2022-12-17T09:36:19.883Z,-5.37
2022-12-17T09:37:21.468Z,-5.58
2022-12-17T09:38:23.108Z,-5.70
2022-12-17T09:39:24.643Z,-5.63
2022-12-17T09:40:26.203Z,-5.66
2022-12-17T09:41:29.520Z,-5.51
2022-12-17T09:42:38.520Z,-5.49
2022-12-17T09:43:46.772Z,-5.28
2022-12-17T09:44:53.281Z,-4.95
2022-12-17T09:46:02.923Z,-4.62
2022-12-17T09:47:17.548Z,-4.32
2022-12-17T09:48:29.488Z,-4.49
2022-12-17T09:49:34.033Z,-4.56
2022-12-17T09:50:36.243Z,-4.46
2022-12-17T09:51:38.191Z,-4.37
2022-12-17T09:52:42.147Z,-4.45
2022-12-17T09:53:53.637Z,-4.37
2022-12-17T09:55:00.842Z,-4.25
2022-12-17T09:56:04.882Z,-4.49
2022-12-17T09:57:12.529Z,-4.49
2022-12-17T09:58:20.406Z,-4.21
2022-12-17T09:59:27.394Z,-4.21
2022-12-17T10:00:29.360Z,-4.22
2022-12-17T10:01:34.479Z,-4.15
2022-12-17T10:02:38.300Z,-4.18
2022-12-17T10:03:44.255Z,-4.38
2022-12-17T10:04:47.100Z,-4.23
2022-12-17T10:05:50.262Z,-4.49
2022-12-17T10:06:51.851Z,-4.37
2022-12-17T10:07:54.176Z,-4.37
2022-12-17T10:08:59.448Z,-4.12
2022-12-17T10:10:20.467Z,-4.02
2022-12-17T10:11:24.522Z,-4.07
2022-12-17T10:12:26.235Z,-4.08
2022-12-17T10:13:27.768Z,-4.22
2022-12-17T10:14:43.031Z,-4.01
2022-12-17T10:15:44.623Z,-3.99
2022-12-17T10:16:46.812Z,-3.90
2022-12-17T10:17:49.572Z,-4.16
2022-12-17T10:18:51.149Z,-3.81
2022-12-17T10:19:54.968Z,-3.59
2022-12-17T10:20:59.279Z,-3.45
2022-12-17T10:22:11.969Z,-3.37
2022-12-17T10:23:23.201Z,-4.07
2022-12-17T10:24:24.769Z,-4.07
2022-12-17T10:25:26.248Z,-3.97
2022-12-17T10:26:29.585Z,-3.93
2022-12-17T10:27:31.302Z,-4.14
2022-12-17T10:28:32.830Z,-4.24
2022-12-17T10:29:34.618Z,-4.15
2022-12-17T10:30:53.001Z,-3.86
2022-12-17T10:31:55.864Z,-3.65
2022-12-17T10:32:57.464Z,-3.45
2022-12-17T10:33:58.995Z,-3.58
2022-12-17T10:35:06.491Z,-3.51
2022-12-17T10:36:21.147Z,-4.25
2022-12-17T10:37:23.041Z,-3.98
2022-12-17T10:38:26.510Z,-3.83
2022-12-17T10:39:28.120Z,-3.90
2022-12-17T10:40:32.155Z,-4.10
2022-12-17T10:41:35.207Z,-4.04
2022-12-17T10:42:39.243Z,-4.07
2022-12-17T10:43:41.823Z,-3.81
2022-12-17T10:44:43.347Z,-3.66
2022-12-17T10:45:54.343Z,-3.74
2022-12-17T10:46:56.836Z,-4.32
2022-12-17T10:47:58.388Z,-4.75
2022-12-17T10:49:11.804Z,-4.64
2022-12-17T10:50:16.400Z,-5.14
2022-12-17T10:51:21.242Z,-5.18
2022-12-17T10:52:28.441Z,-5.23
2022-12-17T10:53:29.934Z,-5.32
2022-12-17T10:54:33.498Z,-5.42
2022-12-17T10:55:35.956Z,-5.35
2022-12-17T10:56:37.594Z,-5.53
2022-12-17T10:57:39.480Z,-5.53
2022-12-17T10:58:45.196Z,-5.58
2022-12-17T10:59:47.280Z,-5.56
2022-12-17T11:00:50.627Z,-5.67
2022-12-17T11:01:58.477Z,-5.61
2022-12-17T11:03:00.238Z,-5.67
2022-12-17T11:04:01.863Z,-5.62
2022-12-17T11:05:04.099Z,-5.68
2022-12-17T11:06:06.452Z,-5.70
2022-12-17T11:07:10.594Z,-5.55
2022-12-17T11:08:15.060Z,-5.38
2022-12-17T11:09:29.927Z,-5.47
2022-12-17T11:10:36.938Z,-5.23
2022-12-17T11:11:43.682Z,-5.42
2022-12-17T11:12:48.466Z,-5.53
2022-12-17T11:13:52.125Z,-5.50
2022-12-17T11:14:59.177Z,-5.35
2022-12-17T11:16:02.545Z,-5.15
2022-12-17T11:17:12.820Z,-4.97
2022-12-17T11:18:17.903Z,-4.72
2022-12-17T11:21:06.155Z,-4.77
2022-12-17T11:22:22.321Z,-4.75
2022-12-17T11:23:23.938Z,-4.93
2022-12-17T11:24:34.797Z,-4.97
2022-12-17T11:25:54.549Z,-4.73
2022-12-17T11:26:58.640Z,-4.64
2022-12-17T11:28:11.094Z,-4.31
2022-12-17T11:29:14.017Z,-4.37
2022-12-17T11:30:17.072Z,-4.25
2022-12-17T11:31:34.267Z,-4.14
2022-12-17T11:32:52.106Z,-4.25
2022-12-17T11:34:01.145Z,-3.89
2022-12-17T11:35:09.890Z,-4.12
2022-12-17T11:36:18.392Z,-4.33
2022-12-17T11:37:22.263Z,-4.36
2022-12-17T11:38:33.697Z,-4.11
2022-12-17T11:40:10.323Z,-3.85
2022-12-17T11:41:18.258Z,-3.87
2022-12-17T11:42:30.703Z,-3.80
2022-12-17T11:43:43.352Z,-3.48
2022-12-17T11:44:54.469Z,-3.55
2022-12-17T11:46:07.354Z,-3.99
2022-12-17T11:48:48.236Z,-4.10
2022-12-17T11:49:56.017Z,-4.10
2022-12-17T11:51:05.109Z,-4.03
2022-12-17T11:52:12.067Z,-3.82
2022-12-17T11:53:28.383Z,-3.54
2022-12-17T11:54:38.458Z,-3.72
2022-12-17T11:55:46.380Z,-3.80
2022-12-17T11:56:52.438Z,-3.37
2022-12-17T11:58:00.626Z,-3.10
2022-12-17T11:59:12.119Z,-2.92
2022-12-17T12:00:18.908Z,-3.14
2022-12-17T12:01:27.553Z,-2.98
2022-12-17T12:02:43.533Z,-3.21
2022-12-17T12:03:54.931Z,-3.33
2022-12-17T12:05:04.536Z,-3.30
2022-12-17T12:06:18.488Z,-3.41
2022-12-17T12:07:26.176Z,-3.34
2022-12-17T12:08:29.705Z,-3.76
2022-12-17T12:09:40.385Z,-3.25
2022-12-17T12:10:49.183Z,-3.13
2022-12-17T12:12:00.846Z,-3.17
2022-12-17T12:13:11.101Z,-3.22
2022-12-17T12:14:25.023Z,-3.32
2022-12-17T12:15:46.117Z,-3.27
2022-12-17T12:16:59.849Z,-3.64
2022-12-17T12:18:09.592Z,-3.66
2022-12-17T12:19:21.058Z,-3.44
2022-12-17T12:20:37.352Z,-3.45
2022-12-17T12:21:53.785Z,-3.39
2022-12-17T12:23:09.150Z,-3.54
2022-12-17T12:24:24.863Z,-3.47
2022-12-17T12:25:38.563Z,-3.55
2022-12-17T12:26:48.547Z,-3.51
2022-12-17T12:27:59.335Z,-3.45
2022-12-17T12:29:11.723Z,-3.55
2022-12-17T12:30:16.777Z,-3.75
2022-12-17T12:31:27.193Z,-4.02
2022-12-17T12:32:39.481Z,-4.01
2022-12-17T12:33:47.609Z,-4.07
2022-12-17T12:34:54.409Z,-4.06
2022-12-17T12:36:01.921Z,-4.28
2022-12-17T12:37:05.136Z,-4.52
2022-12-17T12:38:15.998Z,-4.67
2022-12-17T12:39:27.033Z,-4.61
2022-12-17T12:40:36.365Z,-4.67
2022-12-17T12:41:45.105Z,-4.67
2022-12-17T12:42:53.969Z,-4.74
2022-12-17T12:43:59.715Z,-4.64
2022-12-17T12:45:05.772Z,-4.45
2022-12-17T12:46:16.254Z,-4.40
2022-12-17T12:47:25.302Z,-4.30
2022-12-17T12:48:38.906Z,-4.36
2022-12-17T12:49:50.326Z,-4.22
2022-12-17T12:51:00.742Z,-4.12
2022-12-17T12:52:02.758Z,-4.10
2022-12-17T12:53:04.590Z,-4.12
2022-12-17T12:54:22.923Z,-4.18
2022-12-17T12:55:36.813Z,-4.34
2022-12-17T12:56:38.373Z,-4.36
2022-12-17T12:57:43.558Z,-4.33
2022-12-17T12:58:45.083Z,-4.34
2022-12-17T12:59:49.406Z,-4.28
2022-12-17T13:00:55.285Z,-4.21
2022-12-17T13:01:57.039Z,-4.35
2022-12-17T13:03:07.759Z,-4.40
2022-12-17T13:04:28.934Z,-4.37
2022-12-17T13:05:39.149Z,-4.36
2022-12-17T13:06:45.187Z,-4.43
2022-12-17T13:07:46.695Z,-4.44
2022-12-17T13:08:50.210Z,-4.48
2022-12-17T13:09:54.406Z,-4.49
2022-12-17T13:10:56.009Z,-4.27
2022-12-17T13:12:17.628Z,-4.39
2022-12-17T13:13:29.875Z,-4.38
2022-12-17T13:14:35.636Z,-4.16
2022-12-17T13:15:43.899Z,-4.05
2022-12-17T13:16:53.140Z,-3.92
2022-12-17T13:18:00.208Z,-3.83
2022-12-17T13:19:03.772Z,-4.05
2022-12-17T13:20:22.484Z,-4.02
2022-12-17T13:21:27.201Z,-3.72
2022-12-17T13:22:31.310Z,-3.69
2022-12-17T13:23:34.887Z,-3.69
2022-12-17T13:24:36.443Z,-3.63
2022-12-17T13:25:38.387Z,-3.59
2022-12-17T13:26:44.703Z,-3.52
2022-12-17T13:27:46.663Z,-3.35
2022-12-17T13:29:00.989Z,-3.63
2022-12-17T13:30:20.119Z,-3.84
2022-12-17T13:31:25.316Z,-3.94
2022-12-17T13:32:31.066Z,-4.14
2022-12-17T13:33:43.461Z,-4.23
2022-12-17T13:35:10.717Z,-4.23
2022-12-17T13:36:19.639Z,-4.24
2022-12-17T13:37:35.270Z,-4.36
2022-12-17T13:38:47.914Z,-4.65
2022-12-17T13:39:56.475Z,-4.54
2022-12-17T13:41:10.220Z,-4.52
2022-12-17T13:42:18.695Z,-4.62
2022-12-17T13:43:23.224Z,-4.58
2022-12-17T13:44:27.152Z,-4.33
2022-12-17T13:45:32.686Z,-4.36
2022-12-17T13:46:53.851Z,-4.32
2022-12-17T13:47:57.113Z,-4.16
2022-12-17T13:49:01.804Z,-4.04
2022-12-17T13:50:33.754Z,-3.91
2022-12-17T13:51:36.750Z,-3.83